Time;durP1;ratioP1;P1;durP2;ratioP2;P2;SDS_P1;SDS_P2;PMS_P1;PMS_P2;Temp;Humidity;BMP_temperature;BMP_pressure;BME280_temperature;BME280_humidity;BME280_pressure;Samples;Min_cycle;Max_cycle;Signal;HPM_P1;HPM_P2
2022/03/13 00:01:48;;;;;;;36.72;18.35;;;;;;;-3.31;52.36;101689.06;5591060;31;34862;-62
2022/03/13 00:04:54;;;;;;;39.78;19.67;;;;;;;-3.38;52.74;101691.00;5590542;31;34192;-62
2022/03/13 00:07:56;;;;;;;40.47;20.45;;;;;;;-3.39;52.98;101689.31;5590476;31;34476;-62
2022/03/13 00:11:07;;;;;;;36.33;19.33;;;;;;;-3.38;53.59;101691.00;5590355;31;34567;-62
2022/03/13 00:14:10;;;;;;;38.28;19.95;;;;;;;-3.46;54.02;101685.19;5590538;31;34867;-63
2022/03/13 00:17:15;;;;;;;35.25;19.12;;;;;;;-3.55;54.66;101683.75;5590493;31;34152;-64
2022/03/13 00:20:17;;;;;;;40.00;20.90;;;;;;;-3.57;55.05;101682.06;5590451;31;34221;-63
2022/03/13 00:23:20;;;;;;;38.63;20.02;;;;;;;-3.60;55.99;101684.78;5590411;31;34904;-63
2022/03/13 00:26:23;;;;;;;40.55;20.30;;;;;;;-3.51;56.40;101674.97;5590224;31;34321;-62
2022/03/13 00:29:27;;;;;;;40.97;20.73;;;;;;;-3.55;56.30;101672.50;5590309;31;34228;-63
2022/03/13 00:32:29;;;;;;;41.15;21.20;;;;;;;-3.58;56.79;101678.63;5590134;31;34128;-62
2022/03/13 00:35:33;;;;;;;40.50;21.48;;;;;;;-3.69;57.99;101679.88;5590230;31;34203;-62
2022/03/13 00:38:35;;;;;;;37.63;21.02;;;;;;;-3.73;57.90;101675.66;5590244;31;34849;-62
2022/03/13 00:41:40;;;;;;;47.58;23.58;;;;;;;-3.69;59.42;101685.03;5590228;31;34950;-62
2022/03/13 00:44:43;;;;;;;48.58;24.08;;;;;;;-3.29;60.69;101677.72;5590473;31;34877;-62
2022/03/13 00:47:47;;;;;;;53.63;25.65;;;;;;;-3.10;60.40;101681.44;5590181;31;34196;-61
2022/03/13 00:50:50;;;;;;;46.90;23.42;;;;;;;-3.38;61.23;101674.56;5590165;31;34852;-62
2022/03/13 00:53:53;;;;;;;48.83;24.37;;;;;;;-3.55;62.57;101677.69;5589143;31;34305;-62
2022/03/13 00:56:55;;;;;;;47.40;23.45;;;;;;;-3.52;62.78;101670.66;5589965;31;34222;-62
2022/03/13 00:59:58;;;;;;;45.75;22.95;;;;;;;-3.68;63.26;101672.00;5590160;31;34124;-63
2022/03/13 01:03:01;;;;;;;52.17;23.30;;;;;;;-3.77;63.51;101671.44;5590149;31;34317;-62
2022/03/13 01:06:05;;;;;;;51.47;23.75;;;;;;;-3.82;63.99;101675.91;5590073;31;34248;-63
2022/03/13 01:09:08;;;;;;;46.33;24.00;;;;;;;-3.62;63.21;101663.22;5589153;31;34408;-63
2022/03/13 01:12:11;;;;;;;51.47;24.20;;;;;;;-3.54;62.28;101659.50;5589950;31;34624;-61
2022/03/13 01:15:16;;;;;;;47.03;23.80;;;;;;;-3.18;61.06;101665.25;5589920;31;34877;-63
2022/03/13 01:18:19;;;;;;;44.10;22.85;;;;;;;-3.28;61.26;101665.59;5589874;31;34282;-63
2022/03/13 01:21:22;;;;;;;49.67;23.30;;;;;;;-3.46;61.61;101669.62;5589838;31;34222;-63
2022/03/13 01:24:38;;;;;;;50.70;22.60;;;;;;;-3.63;61.83;101666.72;5589847;31;34237;-62
2022/03/13 01:27:41;;;;;;;49.58;22.05;;;;;;;-3.81;62.80;101662.06;5589717;31;34590;-63
2022/03/13 01:30:44;;;;;;;45.47;22.05;;;;;;;-3.82;63.10;101660.34;5589794;31;34650;-63
2022/03/13 01:33:46;;;;;;;43.83;23.52;;;;;;;-3.92;63.92;101654.59;5590100;31;34384;-62
2022/03/13 01:36:49;;;;;;;48.10;23.55;;;;;;;-3.89;65.86;101658.84;5589906;31;34610;-62
2022/03/13 01:39:51;;;;;;;50.95;22.70;;;;;;;-3.70;66.12;101657.41;5589807;31;34156;-62
2022/03/13 01:42:55;;;;;;;48.10;22.67;;;;;;;-3.80;65.86;101650.81;5589712;31;34123;-62
2022/03/13 01:46:02;;;;;;;40.97;20.52;;;;;;;-3.95;66.22;101640.00;5589705;31;34813;-62
2022/03/13 01:49:07;;;;;;;43.13;21.77;;;;;;;-3.98;66.58;101641.84;5589571;31;34400;-63
2022/03/13 01:52:10;;;;;;;42.03;22.20;;;;;;;-4.14;67.05;101638.84;5589607;31;34215;-62
2022/03/13 01:55:13;;;;;;;49.15;22.58;;;;;;;-4.18;66.93;101644.16;5589514;31;34172;-61
2022/03/13 01:58:16;;;;;;;45.08;22.15;;;;;;;-4.25;67.06;101638.28;5589626;31;34946;-62
2022/03/13 02:01:20;;;;;;;44.95;22.58;;;;;;;-4.29;67.08;101635.81;5589629;31;34822;-62
2022/03/13 02:04:26;;;;;;;46.45;21.55;;;;;;;-4.31;66.89;101635.88;5589503;31;34898;-62
2022/03/13 02:07:29;;;;;;;46.45;21.02;;;;;;;-4.29;66.95;101626.31;5589864;31;34944;-62
2022/03/13 02:10:32;;;;;;;48.47;23.62;;;;;;;-4.30;67.10;101628.94;5589446;31;34144;-62
2022/03/13 02:13:36;;;;;;;50.08;23.83;;;;;;;-4.30;67.63;101628.94;5589402;31;34175;-62
2022/03/13 02:16:39;;;;;;;44.42;22.15;;;;;;;-4.32;67.13;101628.16;5589376;31;34785;-62
2022/03/13 02:19:42;;;;;;;45.70;23.20;;;;;;;-4.43;67.06;101629.28;5589369;31;35480;-61
2022/03/13 02:22:51;;;;;;;46.60;23.90;;;;;;;-4.28;67.58;101628.03;5589302;31;34226;-62
2022/03/13 02:26:00;;;;;;;44.72;22.25;;;;;;;-4.15;67.12;101623.31;5589222;31;34241;-62
2022/03/13 02:29:03;;;;;;;45.63;22.10;;;;;;;-4.21;67.01;101628.69;5589283;31;33486;-62
2022/03/13 02:32:06;;;;;;;48.30;23.12;;;;;;;-4.26;67.23;101631.41;5589296;31;34970;-62
2022/03/13 02:35:11;;;;;;;42.47;22.30;;;;;;;-3.81;66.22;101631.81;5589044;31;34214;-63
2022/03/13 02:38:13;;;;;;;43.10;22.10;;;;;;;-3.81;65.68;101626.63;5589167;31;34186;-63
2022/03/13 02:41:17;;;;;;;44.85;23.27;;;;;;;-3.85;65.24;101631.94;5589108;31;34930;-62
2022/03/13 02:44:20;;;;;;;43.97;22.27;;;;;;;-4.15;66.27;101628.50;5589060;31;34211;-61
2022/03/13 02:47:23;;;;;;;45.45;22.02;;;;;;;-4.29;66.33;101631.50;5589315;31;34238;-63
2022/03/13 02:50:26;;;;;;;45.10;21.37;;;;;;;-4.37;66.54;101630.88;5588922;31;34163;-63
2022/03/13 02:53:29;;;;;;;40.67;22.62;;;;;;;-4.23;66.27;101623.56;5588920;31;34259;-62
2022/03/13 02:56:32;;;;;;;44.63;21.77;;;;;;;-4.40;66.64;101613.66;5588899;31;34193;-62
2022/03/13 02:59:35;;;;;;;46.42;21.92;;;;;;;-4.47;66.55;101608.72;5589101;31;34771;-62
2022/03/13 03:02:37;;;;;;;39.92;20.45;;;;;;;-4.55;66.98;101605.50;5588679;31;34081;-62
2022/03/13 03:05:41;;;;;;;39.55;20.27;;;;;;;-4.50;66.38;101614.81;5588810;31;34850;-62
2022/03/13 03:08:43;;;;;;;36.20;19.42;;;;;;;-4.56;66.16;101606.37;5588612;31;34168;-62
2022/03/13 03:11:47;;;;;;;39.90;20.70;;;;;;;-4.54;66.00;101605.44;5588567;31;34813;-61
2022/03/13 03:14:50;;;;;;;41.83;20.98;;;;;;;-4.65;66.16;101611.81;5588577;31;34920;-62
2022/03/13 03:17:53;;;;;;;36.72;19.98;;;;;;;-4.68;66.45;101604.09;5590752;31;34845;-61
2022/03/13 03:20:56;;;;;;;42.00;19.65;;;;;;;-4.77;66.97;101604.34;5590186;31;34160;-62
2022/03/13 03:23:59;;;;;;;41.05;20.73;;;;;;;-4.83;67.90;101601.03;5590954;31;34880;-62
2022/03/13 03:27:02;;;;;;;40.97;19.10;;;;;;;-4.88;68.30;101600.31;5590766;31;34359;-63
2022/03/13 03:30:05;;;;;;;38.28;19.55;;;;;;;-4.65;67.95;101585.91;5590770;31;34958;-62
2022/03/13 03:33:08;;;;;;;39.85;20.10;;;;;;;-4.62;67.91;101602.22;5589925;31;34907;-63
2022/03/13 03:36:15;;;;;;;40.45;19.90;;;;;;;-4.50;68.08;101594.09;5590845;31;34443;-63
2022/03/13 03:39:20;;;;;;;38.47;20.27;;;;;;;-4.56;67.97;101596.88;5591138;31;34500;-63
2022/03/13 03:42:22;;;;;;;43.20;20.95;;;;;;;-4.64;68.48;101593.63;5590731;31;34711;-63
2022/03/13 03:45:25;;;;;;;43.13;21.02;;;;;;;-4.66;69.66;101592.84;5591074;31;34257;-63
2022/03/13 03:48:29;;;;;;;45.50;22.45;;;;;;;-4.71;69.87;101592.09;5591245;31;35444;-62
2022/03/13 03:51:32;;;;;;;45.90;22.08;;;;;;;-4.85;70.90;101586.47;5590734;31;34424;-62
2022/03/13 03:54:35;;;;;;;41.85;22.02;;;;;;;-4.77;72.02;101589.69;5590895;31;34652;-62
2022/03/13 03:57:41;;;;;;;43.13;22.20;;;;;;;-4.84;72.18;101586.41;5590641;31;34218;-62
2022/03/13 04:00:44;;;;;;;42.28;21.15;;;;;;;-4.87;72.59;101586.50;5590627;31;34148;-62
2022/03/13 04:03:47;;;;;;;47.10;22.20;;;;;;;-5.03;72.96;101576.56;5590552;31;34870;-63
2022/03/13 04:06:53;;;;;;;43.30;21.48;;;;;;;-5.10;74.15;101585.41;5590547;31;34310;-62
2022/03/13 04:09:57;;;;;;;39.67;21.90;;;;;;;-5.13;73.99;101578.53;5590962;31;34206;-62
2022/03/13 04:13:01;;;;;;;47.95;23.58;;;;;;;-5.19;74.32;101575.28;5590559;31;34878;-62
2022/03/13 04:16:07;;;;;;;42.60;21.73;;;;;;;-5.20;74.75;101576.16;5590819;31;34295;-62
2022/03/13 04:19:09;;;;;;;44.92;22.73;;;;;;;-5.20;74.78;101574.44;5590733;31;34872;-62
2022/03/13 04:22:15;;;;;;;44.10;22.95;;;;;;;-5.19;74.71;101570.97;5590451;31;34914;-62
2022/03/13 04:25:17;;;;;;;43.53;22.45;;;;;;;-5.22;74.84;101576.19;5590448;31;34351;-62
2022/03/13 04:28:21;;;;;;;40.67;21.55;;;;;;;-5.19;75.00;101581.31;5590171;31;34211;-62
2022/03/13 04:31:24;;;;;;;43.67;22.77;;;;;;;-5.26;75.42;101572.00;5590303;31;34905;-62
2022/03/13 04:34:28;;;;;;;42.15;21.42;;;;;;;-5.26;75.64;101577.16;5590197;31;34664;-62
2022/03/13 04:37:30;;;;;;;45.05;20.67;;;;;;;-5.31;75.84;101568.69;5590318;31;35442;-63
2022/03/13 04:40:34;;;;;;;44.78;22.10;;;;;;;-5.29;76.21;101577.25;5590416;31;34176;-62
2022/03/13 04:43:37;;;;;;;45.42;21.50;;;;;;;-5.29;76.49;101575.53;5590204;31;34835;-63
2022/03/13 04:46:41;;;;;;;40.78;21.92;;;;;;;-5.33;76.65;101571.31;5590268;31;34656;-63
2022/03/13 04:49:44;;;;;;;40.85;20.95;;;;;;;-5.31;77.00;101572.13;5590256;31;34939;-62
2022/03/13 04:52:50;;;;;;;41.95;21.80;;;;;;;-5.31;77.13;101576.44;5590186;31;34186;-62
2022/03/13 04:55:53;;;;;;;46.03;21.85;;;;;;;-5.31;77.05;101579.03;5590457;31;34396;-61
2022/03/13 04:58:55;;;;;;;42.97;22.30;;;;;;;-5.37;77.26;101574.84;5589434;31;34187;-62
2022/03/13 05:01:59;;;;;;;41.75;21.30;;;;;;;-5.39;78.21;101574.06;5589982;31;34947;-62
2022/03/13 05:05:03;;;;;;;45.78;21.92;;;;;;;-5.38;78.47;101580.94;5590177;31;34801;-63
2022/03/13 05:08:11;;;;;;;42.28;22.17;;;;;;;-5.36;78.67;101573.97;5590019;31;34243;-62
2022/03/13 05:11:14;;;;;;;43.00;21.05;;;;;;;-5.26;78.21;101572.00;5590012;31;34140;-62
2022/03/13 05:14:17;;;;;;;50.30;21.83;;;;;;;-5.27;77.91;101571.12;5589959;31;34349;-62
2022/03/13 05:17:20;;;;;;;44.45;22.08;;;;;;;-5.25;78.11;101578.87;5589915;31;34150;-62
2022/03/13 05:20:23;;;;;;;40.75;21.30;;;;;;;-5.28;78.07;101577.19;5590280;31;35514;-63
2022/03/13 05:23:26;;;;;;;40.22;20.05;;;;;;;-5.06;77.23;101579.25;5590200;31;34230;-63
2022/03/13 05:26:29;;;;;;;43.05;20.80;;;;;;;-4.98;76.55;101572.97;5590035;31;34341;-63
2022/03/13 05:29:32;;;;;;;38.80;20.48;;;;;;;-5.04;76.68;101578.34;5589829;31;34860;-62
2022/03/13 05:32:35;;;;;;;42.30;20.83;;;;;;;-4.99;76.72;101578.22;5589513;31;34547;-64
2022/03/13 05:35:38;;;;;;;43.53;20.23;;;;;;;-4.94;76.99;101577.16;5589701;31;34211;-62
2022/03/13 05:38:41;;;;;;;40.42;20.60;;;;;;;-4.84;76.50;101583.81;5589058;31;34224;-62
2022/03/13 05:41:44;;;;;;;38.25;19.80;;;;;;;-4.76;75.97;101586.22;5589865;31;34301;-62
2022/03/13 05:44:46;;;;;;;37.60;18.73;;;;;;;-4.57;75.21;101581.38;5589581;31;34909;-62
2022/03/13 05:47:54;;;;;;;35.55;18.30;;;;;;;-4.44;73.39;101583.56;5589443;31;34274;-63
2022/03/13 05:50:57;;;;;;;33.90;17.98;;;;;;;-4.31;72.38;101586.66;5589621;31;34232;-62
2022/03/13 05:54:00;;;;;;;34.92;19.60;;;;;;;-4.08;71.57;101599.78;5589631;31;34283;-63
2022/03/13 05:57:12;;;;;;;35.63;18.45;;;;;;;-4.09;71.49;101602.41;5589633;31;34824;-62
2022/03/13 06:00:16;;;;;;;39.33;18.33;;;;;;;-3.93;70.08;101600.22;5589605;31;34968;-62
2022/03/13 06:03:19;;;;;;;36.22;19.35;;;;;;;-3.95;70.13;101605.44;5590036;31;34436;-62
2022/03/13 06:06:21;;;;;;;36.45;18.60;;;;;;;-3.85;69.74;101612.06;5589688;31;34111;-62
2022/03/13 06:09:24;;;;;;;38.40;20.45;;;;;;;-3.71;68.91;101609.03;5589820;31;34591;-62
2022/03/13 06:12:26;;;;;;;38.20;19.60;;;;;;;-3.52;67.27;101602.38;5589008;31;34270;-62
2022/03/13 06:15:29;;;;;;;41.22;20.98;;;;;;;-3.46;67.64;101607.38;5589427;31;34217;-62
2022/03/13 06:18:32;;;;;;;42.62;20.17;;;;;;;-3.14;65.96;101608.91;5589376;31;34450;-62
2022/03/13 06:21:35;;;;;;;40.58;19.52;;;;;;;-3.14;65.75;101596.78;5589774;31;34935;-62
2022/03/13 06:24:38;;;;;;;36.78;16.92;;;;;;;-2.67;64.41;101599.50;5589241;31;34233;-62
2022/03/13 06:27:42;;;;;;;35.33;16.77;;;;;;;-2.34;63.48;101592.25;5589241;31;34686;-62
2022/03/13 06:30:45;;;;;;;37.03;16.60;;;;;;;-2.13;63.13;101601.84;5589119;31;35099;-61
2022/03/13 06:33:48;;;;;;;34.63;15.65;;;;;;;-1.88;62.40;101604.34;5589010;31;34898;-62
2022/03/13 06:36:51;;;;;;;39.47;16.20;;;;;;;-1.93;62.09;101609.72;5589102;31;34382;-62
2022/03/13 06:39:54;;;;;;;31.83;15.57;;;;;;;-1.53;61.45;101610.78;5589182;31;34266;-61
2022/03/13 06:42:58;;;;;;;35.78;15.68;;;;;;;-1.44;60.31;101613.88;5589006;31;34191;-62
2022/03/13 06:46:03;;;;;;;36.20;17.08;;;;;;;-1.11;59.38;101623.81;5589075;31;34270;-61
2022/03/13 06:49:06;;;;;;;35.80;17.05;;;;;;;-1.08;59.80;101618.50;5589007;31;34259;-61
2022/03/13 06:52:14;;;;;;;35.13;16.70;;;;;;;-0.73;58.86;101622.22;5587963;31;34939;-62
2022/03/13 06:55:18;;;;;;;34.08;16.40;;;;;;;-0.48;58.39;101615.00;5588968;31;34889;-62
2022/03/13 06:58:21;;;;;;;35.50;16.75;;;;;;;0.88;55.69;101619.03;5588760;31;34773;-62
2022/03/13 07:01:24;;;;;;;35.47;17.40;;;;;;;1.73;53.03;101619.87;5588621;31;34181;-61
2022/03/13 07:04:27;;;;;;;35.97;17.55;;;;;;;2.03;50.19;101617.38;5588672;31;34434;-62
2022/03/13 07:07:30;;;;;;;33.13;16.60;;;;;;;0.66;50.62;101623.63;5588722;31;34245;-62
2022/03/13 07:10:33;;;;;;;29.15;15.77;;;;;;;0.24;49.61;101625.66;5588559;31;34947;-62
2022/03/13 07:13:36;;;;;;;30.88;16.55;;;;;;;-0.01;49.51;101626.78;5588483;31;34852;-62
2022/03/13 07:16:39;;;;;;;37.08;16.73;;;;;;;0.55;48.26;101631.09;5588562;31;34466;-62
2022/03/13 07:19:44;;;;;;;36.10;17.83;;;;;;;0.44;48.87;101634.22;5588510;31;34974;-62
2022/03/13 07:22:47;;;;;;;37.83;17.95;;;;;;;0.61;48.49;101635.19;5588463;31;34622;-62
2022/03/13 07:25:51;;;;;;;36.08;17.42;;;;;;;0.48;48.84;101634.94;5587682;31;34238;-62
2022/03/13 07:28:53;;;;;;;38.53;17.20;;;;;;;0.84;48.04;101627.09;5588742;31;34164;-63
2022/03/13 07:31:56;;;;;;;39.28;17.77;;;;;;;1.82;46.13;101626.37;5588218;31;34841;-63
2022/03/13 07:34:59;;;;;;;34.78;16.95;;;;;;;3.30;43.38;101618.84;5588167;31;34365;-62
2022/03/13 07:38:03;;;;;;;31.87;17.08;;;;;;;4.62;40.35;101619.31;5588133;31;34362;-62
2022/03/13 07:41:06;;;;;;;35.50;17.12;;;;;;;6.57;35.92;101617.22;5588062;31;34141;-63
2022/03/13 07:44:10;;;;;;;32.22;16.83;;;;;;;7.39;32.76;101625.06;5588055;31;34245;-63
2022/03/13 07:47:13;;;;;;;31.45;16.27;;;;;;;7.14;32.84;101624.38;5587939;31;34210;-63
2022/03/13 07:50:17;;;;;;;26.45;16.12;;;;;;;7.63;32.47;101629.41;5587879;31;34818;-63
2022/03/13 07:53:20;;;;;;;28.70;16.77;;;;;;;9.34;30.14;101627.84;5587622;31;34877;-63
2022/03/13 07:56:25;;;;;;;32.90;18.25;;;;;;;7.08;31.12;101632.75;5587974;31;34170;-63
2022/03/13 07:59:28;;;;;;;33.85;18.12;;;;;;;6.87;31.84;101629.94;5587636;31;34185;-62
2022/03/13 08:02:31;;;;;;;32.10;18.12;;;;;;;7.69;32.32;101621.88;5589055;31;34103;-62
2022/03/13 08:05:34;;;;;;;28.87;17.62;;;;;;;8.52;30.17;101626.75;5590569;31;34613;-63
2022/03/13 08:08:37;;;;;;;29.87;16.73;;;;;;;7.60;31.27;101624.38;5590191;31;35432;-63
2022/03/13 08:11:41;;;;;;;30.12;16.90;;;;;;;7.80;30.90;101635.06;5589906;31;34285;-63
2022/03/13 08:14:46;;;;;;;24.45;13.50;;;;;;;7.97;29.99;101633.75;5590544;31;34316;-62
2022/03/13 08:17:49;;;;;;;23.73;13.57;;;;;;;8.56;27.94;101634.31;5590521;31;34592;-63
2022/03/13 08:20:51;;;;;;;22.95;14.07;;;;;;;10.20;25.60;101627.47;5590407;31;34190;-63
2022/03/13 08:23:55;;;;;;;22.92;13.43;;;;;;;10.75;25.19;101629.53;5590393;31;34495;-63
2022/03/13 08:26:58;;;;;;;22.58;13.50;;;;;;;12.03;23.77;101626.41;5590626;31;34575;-63
2022/03/13 08:30:07;;;;;;;25.90;13.82;;;;;;;12.83;22.35;101608.81;5590233;31;34275;-63
2022/03/13 08:33:12;;;;;;;19.30;11.65;;;;;;;13.37;22.19;101618.44;5589968;31;34631;-64
2022/03/13 08:36:15;;;;;;;23.40;12.93;;;;;;;15.72;19.06;101616.41;5590316;31;34186;-64
2022/03/13 08:39:18;;;;;;;18.85;11.48;;;;;;;16.06;17.22;101607.09;5590126;31;34930;-64
2022/03/13 08:42:20;;;;;;;23.23;11.95;;;;;;;16.63;17.10;101600.63;5590240;31;34887;-64
2022/03/13 08:45:24;;;;;;;19.52;12.20;;;;;;;16.04;17.82;101601.06;5590196;31;34186;-63
2022/03/13 08:48:28;;;;;;;17.33;11.30;;;;;;;15.50;17.70;101604.53;5590023;31;34267;-64
2022/03/13 08:51:31;;;;;;;15.13;10.52;;;;;;;15.04;17.91;101601.59;5590152;31;34814;-64
2022/03/13 08:54:34;;;;;;;15.38;9.32;;;;;;;16.99;16.81;101599.03;5590235;31;34486;-65
2022/03/13 08:57:36;;;;;;;15.90;9.88;;;;;;;16.17;15.32;101602.38;5590169;31;34147;-65
2022/03/13 09:00:41;;;;;;;17.05;9.18;;;;;;;11.55;19.19;101609.75;5589971;31;34845;-64
2022/03/13 09:03:44;;;;;;;21.17;9.93;;;;;;;10.38;20.07;101609.91;5590050;31;34966;-64
2022/03/13 09:06:49;;;;;;;17.23;10.00;;;;;;;9.49;21.58;101606.19;5590085;31;34655;-64
2022/03/13 09:09:52;;;;;;;15.63;9.38;;;;;;;8.51;21.42;101599.47;5589785;31;34231;-64
2022/03/13 09:12:54;;;;;;;19.12;9.30;;;;;;;7.90;22.19;101600.00;5589147;31;34276;-64
2022/03/13 09:15:57;;;;;;;15.80;8.77;;;;;;;6.99;22.96;101582.37;5590157;31;34157;-64
2022/03/13 09:19:03;;;;;;;12.77;7.85;;;;;;;6.57;23.42;101582.09;5589937;31;34935;-63
2022/03/13 09:22:06;;;;;;;16.33;9.05;;;;;;;6.22;23.50;101572.31;5589883;31;34395;-63
2022/03/13 09:25:10;;;;;;;16.75;9.63;;;;;;;5.72;24.58;101561.84;5589934;31;34536;-63
2022/03/13 09:28:13;;;;;;;16.60;9.32;;;;;;;5.95;24.49;101571.66;5589668;31;34359;-63
2022/03/13 09:31:16;;;;;;;14.32;8.07;;;;;;;5.98;24.90;101574.06;5589735;31;34697;-63
2022/03/13 09:34:18;;;;;;;14.90;7.40;;;;;;;6.32;24.20;101562.78;5589417;31;34297;-63
2022/03/13 09:37:23;;;;;;;13.75;5.85;;;;;;;6.37;23.54;101558.03;5589493;31;34218;-63
2022/03/13 09:40:46;;;;;;;12.57;6.05;;;;;;;6.71;22.38;101550.25;5590058;31;34263;-63
2022/03/13 09:43:48;;;;;;;9.32;5.32;;;;;;;6.71;22.41;101537.06;5589698;31;34463;-62
2022/03/13 09:46:51;;;;;;;14.75;5.78;;;;;;;6.74;21.64;101531.56;5589387;31;34268;-62
2022/03/13 09:49:54;;;;;;;11.98;6.18;;;;;;;6.81;22.18;101535.44;5588929;31;34386;-63
2022/03/13 09:52:57;;;;;;;9.95;5.45;;;;;;;6.92;21.76;101538.94;5589491;31;34893;-63
2022/03/13 09:56:01;;;;;;;11.55;6.10;;;;;;;6.95;20.67;101536.06;5589859;31;34220;-62
2022/03/13 09:59:04;;;;;;;10.27;5.62;;;;;;;6.87;21.43;101534.97;5589345;31;34215;-63
2022/03/13 10:02:09;;;;;;;14.07;6.12;;;;;;;6.75;21.46;101534.09;5589760;31;34856;-62
2022/03/13 10:05:15;;;;;;;12.18;6.90;;;;;;;6.50;21.90;101535.06;5589513;31;34414;-62
2022/03/13 10:08:18;;;;;;;16.83;6.57;;;;;;;6.19;22.89;101535.66;5589202;31;34339;-63
2022/03/13 10:11:34;;;;;;;11.88;6.50;;;;;;;6.24;22.74;101532.69;5588686;31;34914;-62
2022/03/13 10:14:53;;;;;;;11.25;5.97;;;;;;;6.33;22.45;101532.00;5589386;31;34200;-63
2022/03/13 10:17:56;;;;;;;11.25;6.00;;;;;;;6.33;21.83;101539.91;5589338;31;34381;-63
2022/03/13 10:21:11;;;;;;;13.68;6.45;;;;;;;6.29;21.69;101536.66;5589083;31;34107;-63
2022/03/13 10:24:15;;;;;;;15.20;6.70;;;;;;;6.28;22.35;101532.34;5588873;31;34772;-62
2022/03/13 10:27:20;;;;;;;11.55;6.22;;;;;;;6.31;21.99;101536.53;5589402;31;34226;-63
2022/03/13 10:30:24;;;;;;;14.50;6.57;;;;;;;6.34;22.37;101541.59;5589040;31;34188;-63
2022/03/13 10:33:47;;;;;;;11.95;6.37;;;;;;;6.31;22.56;101526.00;5588788;31;34189;-63
2022/03/13 10:36:50;;;;;;;13.25;7.30;;;;;;;6.64;22.61;101535.84;5589427;31;34882;-63
2022/03/13 10:40:18;;;;;;;25.00;7.43;;;;;;;6.80;23.67;101526.69;5588934;31;34296;-62
2022/03/13 10:43:29;;;;;;;11.02;6.40;;;;;;;6.78;22.71;101533.00;5588818;31;34168;-63
2022/03/13 10:46:36;;;;;;;13.15;6.82;;;;;;;6.87;22.64;101533.16;5588713;31;34103;-63
2022/03/13 10:49:45;;;;;;;11.95;6.10;;;;;;;6.83;22.47;101528.22;5588749;31;34215;-63
2022/03/13 10:52:47;;;;;;;11.48;6.18;;;;;;;6.84;22.05;101533.41;5588519;31;35048;-62
2022/03/13 10:56:02;;;;;;;11.40;6.32;;;;;;;6.69;21.91;101524.00;5588769;31;34955;-62
2022/03/13 10:59:17;;;;;;;13.45;7.05;;;;;;;6.97;21.81;101528.06;5588670;31;35467;-63
2022/03/13 11:02:29;;;;;;;11.45;6.07;;;;;;;6.89;21.97;101520.69;5588568;31;34154;-63
2022/03/13 11:05:32;;;;;;;10.15;5.80;;;;;;;7.04;22.54;101516.06;5588667;31;34285;-63
2022/03/13 11:08:36;;;;;;;14.48;6.80;;;;;;;7.39;22.22;101510.69;5588709;31;34686;-63
2022/03/13 11:11:41;;;;;;;11.95;7.03;;;;;;;8.04;20.74;101510.72;5588705;31;34266;-63
2022/03/13 11:14:57;;;;;;;11.48;6.32;;;;;;;9.30;19.38;101512.53;5588438;31;35006;-63
2022/03/13 11:18:01;;;;;;;16.85;7.20;;;;;;;12.53;16.46;101507.06;5588569;31;34277;-64
2022/03/13 11:21:08;;;;;;;9.90;6.18;;;;;;;15.69;14.56;101499.00;5588190;31;34216;-64
2022/03/13 11:24:11;;;;;;;13.77;6.40;;;;;;;18.00;12.57;101500.03;5588184;31;34236;-63
2022/03/13 11:27:15;;;;;;;10.32;6.20;;;;;;;18.52;11.81;101493.53;5587349;31;34068;-64
2022/03/13 11:30:30;;;;;;;8.15;5.30;;;;;;;20.15;10.63;101490.22;5588506;31;34765;-64
2022/03/13 11:33:41;;;;;;;16.75;5.47;;;;;;;20.76;10.48;101492.81;5587346;31;33294;-64
2022/03/13 11:36:44;;;;;;;8.25;6.30;;;;;;;20.09;11.01;101482.94;5589032;31;34731;-64
2022/03/13 11:39:59;;;;;;;9.05;5.87;;;;;;;20.64;10.43;101489.06;5590824;31;35033;-64
2022/03/13 11:43:07;;;;;;;9.30;5.80;;;;;;;16.11;12.81;101469.22;5590463;31;34164;-65
2022/03/13 11:46:10;;;;;;;10.70;6.10;;;;;;;17.71;12.11;101468.69;5590713;31;34481;-64
2022/03/13 11:49:17;;;;;;;11.52;6.93;;;;;;;20.71;10.49;101477.25;5590677;31;34897;-64
2022/03/13 11:52:27;;;;;;;12.77;6.60;;;;;;;19.57;11.32;101467.41;5590898;31;34930;-64
2022/03/13 11:55:31;;;;;;;13.52;4.70;;;;;;;23.35;9.57;101463.19;5590539;31;35008;-65
2022/03/13 11:58:47;;;;;;;8.73;5.55;;;;;;;24.55;8.22;101467.63;5590983;31;34220;-65
2022/03/13 12:01:52;;;;;;;7.97;5.65;;;;;;;22.99;8.81;101452.34;5590435;31;34821;-65
2022/03/13 12:05:24;;;;;;;13.23;7.28;;;;;;;20.40;10.73;101458.16;5590503;31;34542;-65
2022/03/13 12:09:07;;;;;;;9.27;5.68;;;;;;;20.85;10.09;101453.81;5590712;31;34824;-66
2022/03/13 12:12:17;;;;;;;10.82;5.72;;;;;;;19.69;11.36;101441.59;5590614;31;34416;-65
2022/03/13 12:15:23;;;;;;;9.63;5.62;;;;;;;21.39;9.79;101434.63;5590559;31;34859;-65
2022/03/13 12:18:29;;;;;;;7.80;5.87;;;;;;;22.17;9.91;101429.06;5589932;31;34215;-65
2022/03/13 12:21:36;;;;;;;13.62;5.55;;;;;;;22.09;9.91;101427.44;5589822;31;34209;-66
2022/03/13 12:24:49;;;;;;;10.13;5.35;;;;;;;26.31;7.67;101422.78;5590243;31;35151;-66
2022/03/13 12:27:53;;;;;;;9.73;5.30;;;;;;;22.56;8.96;101423.31;5576223;31;34011;-65
2022/03/13 12:31:02;;;;;;;9.60;5.22;;;;;;;22.18;9.13;101422.59;5590050;31;35553;-66
2022/03/13 12:34:05;;;;;;;9.43;5.22;;;;;;;24.94;8.21;101427.31;5590292;31;34954;-66
2022/03/13 12:37:09;;;;;;;7.15;4.90;;;;;;;25.81;7.89;101414.47;5590534;31;34859;-65
2022/03/13 12:40:13;;;;;;;7.12;5.07;;;;;;;23.88;8.68;101408.34;5590055;31;34236;-65
2022/03/13 12:43:20;;;;;;;8.48;4.62;;;;;;;23.64;8.15;101410.97;5590472;31;34310;-65
2022/03/13 12:46:26;;;;;;;6.68;4.85;;;;;;;22.69;8.55;101409.69;5589955;31;34177;-66
2022/03/13 12:49:32;;;;;;;6.75;4.62;;;;;;;22.80;8.61;101408.19;5590377;31;34165;-65
2022/03/13 12:52:36;;;;;;;8.75;4.40;;;;;;;23.01;8.76;101410.44;5589930;31;34193;-65
2022/03/13 12:55:49;;;;;;;6.25;4.55;;;;;;;19.50;10.09;101410.88;5590139;31;34797;-65
2022/03/13 12:58:53;;;;;;;10.43;5.20;;;;;;;17.92;10.97;101399.94;5589880;31;34910;-66
2022/03/13 13:02:04;;;;;;;9.75;5.53;;;;;;;17.66;11.81;101409.38;5590040;31;34942;-65
2022/03/13 13:05:12;;;;;;;9.02;4.70;;;;;;;17.44;12.17;101410.31;5590104;31;34133;-67
2022/03/13 13:08:16;;;;;;;7.40;4.57;;;;;;;19.20;10.92;101397.88;5590098;31;34378;-66
2022/03/13 13:11:33;;;;;;;7.65;4.70;;;;;;;24.99;8.02;101408.44;5589979;31;34222;-66
2022/03/13 13:14:38;;;;;;;7.00;4.72;;;;;;;24.54;8.22;101406.31;5589670;31;35442;-65
2022/03/13 13:17:42;;;;;;;7.87;4.80;;;;;;;24.21;8.35;101406.81;5589730;31;34354;-66
2022/03/13 13:20:46;;;;;;;8.57;5.12;;;;;;;24.86;7.78;101404.06;5589689;31;35372;-64
2022/03/13 13:23:48;;;;;;;6.55;4.87;;;;;;;24.67;8.03;101411.50;5589951;31;35435;-66
2022/03/13 13:26:52;;;;;;;9.45;4.97;;;;;;;24.43;8.07;101409.81;5589789;31;34253;-65
2022/03/13 13:30:28;;;;;;;12.65;5.30;;;;;;;23.60;8.91;101398.09;5589428;31;35582;-66
2022/03/13 13:33:32;;;;;;;10.80;5.32;;;;;;;20.57;10.26;101404.66;5581181;31;34483;-64
2022/03/13 13:36:35;;;;;;;9.05;5.37;;;;;;;20.54;10.14;101399.69;5590008;31;34182;-65
2022/03/13 13:39:38;;;;;;;11.50;5.35;;;;;;;19.89;10.54;101401.28;5589648;31;34163;-66
2022/03/13 13:42:41;;;;;;;8.93;5.22;;;;;;;19.59;10.74;101405.31;5589286;31;34442;-65
2022/03/13 13:45:46;;;;;;;11.68;5.62;;;;;;;18.37;12.06;101406.78;5589663;31;34809;-65
2022/03/13 13:48:49;;;;;;;11.65;5.35;;;;;;;17.21;12.60;101399.72;5589584;31;34593;-65
2022/03/13 13:52:09;;;;;;;10.30;5.40;;;;;;;20.05;11.23;101408.12;5589578;31;34937;-64
2022/03/13 13:55:20;;;;;;;10.77;6.12;;;;;;;21.01;10.53;101398.59;5589392;31;34341;-66
2022/03/13 13:58:26;;;;;;;11.40;5.82;;;;;;;21.09;10.37;101406.44;5589242;31;34249;-65
2022/03/13 14:01:33;;;;;;;11.82;5.60;;;;;;;21.25;10.17;101406.03;5588681;31;34489;-65
2022/03/13 14:04:39;;;;;;;10.27;5.62;;;;;;;20.94;10.72;101406.69;5589188;31;35119;-64
2022/03/13 14:07:42;;;;;;;9.52;5.65;;;;;;;22.31;9.65;101406.28;5589350;31;35539;-66
2022/03/13 14:10:46;;;;;;;8.07;4.72;;;;;;;23.62;8.89;101412.28;5589108;31;34202;-65